Time;durP1;ratioP1;P1;durP2;ratioP2;P2;SDS_P1;SDS_P2;PMS_P1;PMS_P2;Temp;Humidity;BMP_temperature;BMP_pressure;BME280_temperature;BME280_humidity;BME280_pressure;Samples;Min_cycle;Max_cycle;Signal;HPM_P1;HPM_P2
2023/05/02 00:01:03;;;;;;;4.47;2.72;;;19.30;69.40;;;;;;5072032;28;20127;-31
2023/05/02 00:03:30;;;;;;;3.25;2.72;;;18.10;69.60;;;;;;5071829;28;20051;-31
2023/05/02 00:05:59;;;;;;;3.85;2.60;;;18.60;54.50;;;;;;5070744;28;20051;-33
2023/05/02 00:08:27;;;;;;;4.30;2.80;;;;;;;;;;5051754;28;20045;-35
2023/05/02 00:10:54;;;;;;;4.25;2.67;;;19.20;69.40;;;;;;5051628;28;20049;-31
2023/05/02 00:13:20;;;;;;;3.20;2.60;;;18.50;69.50;;;;;;5069941;28;20472;-31
2023/05/02 00:15:47;;;;;;;3.58;2.90;;;;;;;;;;5071865;28;20150;-33
2023/05/02 00:18:14;;;;;;;3.80;2.72;;;19.50;69.60;;;;;;5071814;28;20058;-31
2023/05/02 00:20:41;;;;;;;3.83;2.70;;;;;;;;;;5071011;28;20052;-35
2023/05/02 00:23:11;;;;;;;5.25;3.00;;;18.90;51.20;;;;;;5071416;28;20045;-31
2023/05/02 00:25:38;;;;;;;3.42;2.70;;;;;;;;;;5071700;28;20102;-33
2023/05/02 00:28:05;;;;;;;3.70;2.70;;;19.30;57.30;;;;;;5071890;28;20044;-31
2023/05/02 00:30:32;;;;;;;3.50;2.80;;;;;;;;;;5071607;28;20049;-35
2023/05/02 00:32:59;;;;;;;3.75;2.83;;;19.10;70.30;;;;;;5071457;28;20072;-32
2023/05/02 00:35:26;;;;;;;3.28;2.40;;;;;;;;;;5070897;28;20051;-35
2023/05/02 00:37:52;;;;;;;3.28;2.25;;;18.90;69.70;;;;;;5057488;28;20139;-31
2023/05/02 00:40:21;;;;;;;3.22;2.50;;;18.40;70.00;;;;;;5051491;28;20520;-30
2023/05/02 00:42:47;;;;;;;4.53;2.70;;;19.80;69.90;;;;;;5051606;28;20103;-31
2023/05/02 00:45:14;;;;;;;3.13;2.42;;;19.20;56.00;;;;;;5064690;28;20497;-32
2023/05/02 00:47:41;;;;;;;3.10;2.40;;;18.60;70.00;;;;;;5071403;28;20052;-31
2023/05/02 00:50:08;;;;;;;3.13;2.00;;;18.60;54.60;;;;;;5070712;28;20565;-31
2023/05/02 00:52:35;;;;;;;3.08;2.13;;;18.50;69.50;;;;;;5071149;28;20048;-31
2023/05/02 00:55:03;;;;;;;2.90;2.42;;;;;;;;;;5071513;28;20059;-35
2023/05/02 00:57:31;;;;;;;2.65;2.10;;;18.50;69.20;;;;;;5071549;28;20053;-31
2023/05/02 00:59:57;;;;;;;2.58;2.03;;;18.70;61.30;;;;;;5075435;28;20048;-31
2023/05/02 01:02:32;;;;;;;4.70;2.38;;;18.60;69.70;;;;;;5074913;28;20048;-31
2023/05/02 01:05:02;;;;;;;3.53;2.33;;;17.90;57.60;;;;;;5057129;28;20045;-32
2023/05/02 01:07:42;;;;;;;3.10;2.17;;;18.90;58.40;;;;;;5056232;28;20087;-32
2023/05/02 01:10:14;;;;;;;2.40;1.92;;;18.80;51.30;;;;;;5075182;28;20040;-35
2023/05/02 01:12:45;;;;;;;2.53;2.20;;;18.50;69.50;;;;;;5074686;28;20131;-31
2023/05/02 01:15:15;;;;;;;3.03;2.20;;;18.80;70.10;;;;;;5075056;28;20408;-31
2023/05/02 01:17:41;;;;;;;2.88;2.15;;;19.10;69.60;;;;;;5074443;28;20059;-31
2023/05/02 01:20:11;;;;;;;2.72;2.17;;;18.30;69.60;;;;;;5074966;28;20040;-31
2023/05/02 01:22:39;;;;;;;2.53;1.95;;;19.70;64.80;;;;;;5074456;28;20049;-34
2023/05/02 01:25:13;;;;;;;2.58;2.00;;;19.10;70.00;;;;;;5074868;28;20051;-31
2023/05/02 01:27:43;;;;;;;3.15;2.17;;;17.70;52.90;;;;;;5074642;28;20055;-33
2023/05/02 01:30:11;;;;;;;2.28;1.88;;;18.50;67.80;;;;;;5074622;28;20051;-31
2023/05/02 01:32:39;;;;;;;2.50;2.03;;;18.70;51.30;;;;;;5063102;28;20059;-31
2023/05/02 01:35:06;;;;;;;2.92;2.17;;;19.00;63.30;;;;;;5054428;28;20494;-31
2023/05/02 01:37:33;;;;;;;2.63;1.83;;;17.90;69.90;;;;;;5068734;28;20082;-31
2023/05/02 01:40:00;;;;;;;3.08;2.20;;;18.80;60.40;;;;;;5074662;28;20052;-31
2023/05/02 01:42:26;;;;;;;2.85;1.77;;;19.20;70.00;;;;;;5074300;28;20052;-31
2023/05/02 01:44:54;;;;;;;2.85;2.00;;;18.70;69.90;;;;;;5074307;28;20058;-31
2023/05/02 01:47:22;;;;;;;3.05;2.03;;;19.30;70.20;;;;;;5073904;28;20053;-31
2023/05/02 01:49:49;;;;;;;2.40;1.83;;;;;;;;;;5074282;28;20044;-31
2023/05/02 01:52:16;;;;;;;2.15;1.73;;;;;;;;;;5074157;28;20052;-31
2023/05/02 01:54:44;;;;;;;2.17;1.65;;;;;;;;;;5074702;28;20056;-31
2023/05/02 01:57:10;;;;;;;2.58;1.90;;;18.80;59.40;;;;;;5074105;28;20115;-32
2023/05/02 01:59:37;;;;;;;2.55;1.80;;;18.40;69.30;;;;;;5074228;28;20054;-31
2023/05/02 02:02:04;;;;;;;2.40;1.88;;;18.40;64.00;;;;;;5056449;28;20067;-32
2023/05/02 02:04:32;;;;;;;3.40;2.00;;;19.60;69.90;;;;;;5061742;28;20052;-30
2023/05/02 02:07:02;;;;;;;2.22;1.70;;;18.90;70.00;;;;;;5073859;28;20055;-31
2023/05/02 02:09:29;;;;;;;2.97;1.92;;;19.60;56.70;;;;;;5073327;28;20421;-33
2023/05/02 02:12:01;;;;;;;2.05;1.75;;;17.30;69.20;;;;;;5073861;28;20462;-31
2023/05/02 02:14:28;;;;;;;2.33;1.75;;;19.50;69.90;;;;;;5073451;28;20469;-31
2023/05/02 02:16:56;;;;;;;2.35;1.80;;;17.90;57.80;;;;;;5074123;28;20053;-31
2023/05/02 02:19:23;;;;;;;3.05;1.63;;;;;;;;;;5073522;28;20102;-36
2023/05/02 02:21:51;;;;;;;2.67;2.00;;;17.90;55.30;;;;;;5073543;28;20132;-31
2023/05/02 02:24:18;;;;;;;2.80;1.73;;;18.40;68.50;;;;;;5073403;28;20460;-31
2023/05/02 02:26:46;;;;;;;3.40;1.80;;;;;;;;;;5073971;28;20048;-34
2023/05/02 02:29:12;;;;;;;3.80;1.88;;;18.50;69.80;;;;;;5065954;28;20049;-31
2023/05/02 02:31:40;;;;;;;3.88;1.95;;;;;;;;;;5053907;28;20133;-33
2023/05/02 02:34:06;;;;;;;4.00;2.45;;;18.70;70.30;;;;;;5053335;28;20048;-30
2023/05/02 02:36:34;;;;;;;2.65;1.80;;;17.60;68.90;;;;;;5059201;28;20045;-31
2023/05/02 02:39:10;;;;;;;3.72;2.00;;;18.50;69.80;;;;;;5073613;28;20052;-31
2023/05/02 02:41:40;;;;;;;2.00;1.40;;;18.60;69.90;;;;;;5073675;28;20400;-32
2023/05/02 02:44:10;;;;;;;3.13;1.60;;;19.20;69.80;;;;;;5072382;28;20060;-31
2023/05/02 02:46:45;;;;;;;2.58;1.70;;;18.60;51.20;;;;;;5073214;28;20055;-31
2023/05/02 02:49:17;;;;;;;2.33;1.60;;;18.50;51.10;;;;;;5073133;28;20052;-33
2023/05/02 02:51:45;;;;;;;2.47;1.52;;;18.50;51.10;;;;;;5073325;28;20067;-35
2023/05/02 02:54:15;;;;;;;3.00;1.80;;;18.60;51.40;;;;;;5072897;28;20417;-32
2023/05/02 02:56:42;;;;;;;2.72;1.77;;;19.10;70.60;;;;;;5072716;28;20087;-31
2023/05/02 02:59:12;;;;;;;2.42;1.60;;;19.00;70.00;;;;;;5069376;28;20405;-31
2023/05/02 03:01:40;;;;;;;3.22;1.85;;;18.20;66.20;;;;;;5063284;28;20044;-31
2023/05/02 03:04:07;;;;;;;5.20;2.00;;;18.40;69.40;;;;;;5062215;28;20490;-31
2023/05/02 03:06:34;;;;;;;3.17;1.77;;;;;;;;;;5061689;28;20110;-35
2023/05/02 03:09:02;;;;;;;3.08;1.80;;;19.70;70.00;;;;;;5063052;28;20128;-31
2023/05/02 03:11:30;;;;;;;2.40;1.70;;;18.90;67.70;;;;;;5060418;28;20120;-31
2023/05/02 03:13:57;;;;;;;2.80;1.67;;;18.20;53.10;;;;;;5060703;28;20047;-32
2023/05/02 03:16:32;;;;;;;2.85;1.70;;;18.50;51.00;;;;;;5062787;28;20044;-31
2023/05/02 03:18:59;;;;;;;2.88;1.75;;;18.70;64.30;;;;;;5061215;28;20107;-31
2023/05/02 03:21:26;;;;;;;4.35;1.90;;;;;;;;;;5061249;28;20041;-31
2023/05/02 03:23:53;;;;;;;3.92;1.70;;;18.70;54.10;;;;;;5062635;28;20047;-33
2023/05/02 03:26:20;;;;;;;4.68;2.22;;;19.20;69.70;;;;;;5052020;28;20049;-31
2023/05/02 03:28:49;;;;;;;2.80;1.60;;;18.40;65.40;;;;;;5051858;28;20425;-31
2023/05/02 03:31:15;;;;;;;6.53;1.90;;;18.70;69.20;;;;;;5052067;28;20394;-32
2023/05/02 03:33:42;;;;;;;3.40;1.70;;;17.80;69.30;;;;;;5051882;28;20068;-31
2023/05/02 03:36:09;;;;;;;3.35;1.80;;;;;;;;;;5052243;28;20083;-35
2023/05/02 03:38:36;;;;;;;4.25;1.75;;;19.40;69.70;;;;;;5060287;28;20441;-31
2023/05/02 03:41:03;;;;;;;3.42;1.92;;;18.40;69.20;;;;;;5061481;28;20049;-31
2023/05/02 03:43:30;;;;;;;3.78;1.63;;;18.40;60.60;;;;;;5061907;28;20427;-31
2023/05/02 03:45:58;;;;;;;2.95;1.45;;;18.70;69.40;;;;;;5062739;28;20052;-31
2023/05/02 03:48:26;;;;;;;4.13;1.85;;;18.50;69.20;;;;;;5061989;28;20074;-30
2023/05/02 03:50:53;;;;;;;2.97;1.80;;;19.40;69.80;;;;;;5070747;28;20051;-31
2023/05/02 03:53:20;;;;;;;3.70;1.70;;;;;;;;;;5071912;28;20048;-34
2023/05/02 03:55:47;;;;;;;2.70;1.70;;;;;;;;;;5054387;28;20077;-31
2023/05/02 03:58:14;;;;;;;4.28;1.65;;;;;;;;;;5061208;28;20045;-35
2023/05/02 04:00:41;;;;;;;2.78;1.52;;;18.30;69.30;;;;;;5062362;28;20123;-31
2023/05/02 04:03:10;;;;;;;3.60;1.70;;;18.40;50.80;;;;;;5060284;28;20044;-35
2023/05/02 04:05:37;;;;;;;6.25;1.80;;;;;;;;;;5066147;28;20485;-31
2023/05/02 04:08:05;;;;;;;3.55;1.65;;;18.40;50.70;;;;;;5065941;28;20049;-35
2023/05/02 04:10:31;;;;;;;3.83;1.88;;;18.30;69.50;;;;;;5051920;28;20045;-31
2023/05/02 04:12:58;;;;;;;3.47;1.60;;;17.50;67.20;;;;;;5051653;28;20057;-32
2023/05/02 04:15:25;;;;;;;4.65;1.90;;;18.50;62.10;;;;;;5051880;28;20052;-31
2023/05/02 04:17:51;;;;;;;2.88;1.67;;;18.00;69.00;;;;;;5060656;28;20048;-31
2023/05/02 04:20:19;;;;;;;3.30;1.80;;;18.60;69.30;;;;;;5061463;28;20045;-30
2023/05/02 04:22:48;;;;;;;5.25;2.30;;;19.40;69.80;;;;;;5071533;28;20222;-31
2023/05/02 04:25:15;;;;;;;4.53;1.80;;;18.60;70.10;;;;;;5071531;28;20509;-31
2023/05/02 04:27:42;;;;;;;4.10;1.63;;;18.80;69.70;;;;;;5071838;28;20048;-31
2023/05/02 04:30:10;;;;;;;4.82;2.10;;;18.00;50.50;;;;;;5071488;28;20051;-32
2023/05/02 04:32:36;;;;;;;3.42;1.58;;;18.10;69.30;;;;;;5071358;28;20053;-32
2023/05/02 04:35:03;;;;;;;3.70;1.73;;;18.50;55.80;;;;;;5059841;28;20409;-31
2023/05/02 04:37:32;;;;;;;3.60;1.60;;;18.40;70.10;;;;;;5069411;28;20435;-32
2023/05/02 04:39:58;;;;;;;5.43;1.88;;;17.30;68.80;;;;;;5075730;28;20044;-31
2023/05/02 04:42:26;;;;;;;3.53;1.60;;;;;;;;;;5075333;28;20509;-34
2023/05/02 04:44:53;;;;;;;3.05;1.70;;;;;;;;;;5075336;28;20523;-31
2023/05/02 04:47:20;;;;;;;3.10;1.70;;;;;;;;;;5075402;28;20404;-31
2023/05/02 04:49:47;;;;;;;3.97;1.90;;;18.40;70.20;;;;;;5074631;28;20500;-32
2023/05/02 04:52:14;;;;;;;3.53;1.70;;;;;;;;;;5075098;28;20064;-33
2023/05/02 04:54:42;;;;;;;3.40;1.60;;;18.50;69.50;;;;;;5075331;28;20056;-32
2023/05/02 04:57:09;;;;;;;3.70;1.70;;;19.10;65.10;;;;;;5075353;28;20051;-31
2023/05/02 04:59:37;;;;;;;2.83;2.03;;;;;;;;;;5075356;28;20390;-35
2023/05/02 05:02:04;;;;;;;4.18;1.88;;;;;;;;;;5074657;28;20110;-36
2023/05/02 05:04:30;;;;;;;4.88;2.00;;;18.70;69.40;;;;;;5075053;28;20077;-33
2023/05/02 05:06:57;;;;;;;3.58;1.60;;;18.40;69.40;;;;;;5075126;28;20489;-31
2023/05/02 05:09:24;;;;;;;2.95;1.60;;;;;;;;;;5074882;28;20052;-35
2023/05/02 05:11:52;;;;;;;2.40;1.55;;;18.30;69.30;;;;;;5075315;28;20045;-31
2023/05/02 05:14:19;;;;;;;3.47;1.92;;;17.50;68.90;;;;;;5075078;28;20416;-31
2023/05/02 05:16:46;;;;;;;3.47;1.70;;;18.40;69.40;;;;;;5071769;28;20059;-31
2023/05/02 05:19:13;;;;;;;3.45;1.70;;;;;;;;;;5054957;28;20055;-32
2023/05/02 05:21:40;;;;;;;4.07;1.80;;;19.30;69.90;;;;;;5055100;28;20055;-31
2023/05/02 05:24:07;;;;;;;3.17;1.70;;;;;;;;;;5055044;28;20060;-34
2023/05/02 05:26:34;;;;;;;3.45;1.40;;;19.10;70.00;;;;;;5054666;28;20060;-31
2023/05/02 05:29:02;;;;;;;3.95;1.77;;;18.20;50.50;;;;;;5054552;28;20561;-33
2023/05/02 05:31:29;;;;;;;2.80;1.70;;;18.50;56.60;;;;;;5065240;28;20066;-32
2023/05/02 05:33:56;;;;;;;3.97;1.73;;;;;;;;;;5074671;28;20045;-32
2023/05/02 05:36:22;;;;;;;3.70;1.60;;;18.30;70.00;;;;;;5074238;28;20044;-31
2023/05/02 05:38:49;;;;;;;3.60;1.65;;;18.20;63.90;;;;;;5074628;28;20059;-31
2023/05/02 05:41:16;;;;;;;2.78;1.80;;;;;;;;;;5074071;28;20059;-31
2023/05/02 05:43:43;;;;;;;2.58;1.38;;;;;;;;;;5074173;28;20493;-33
2023/05/02 05:46:11;;;;;;;3.50;1.90;;;18.40;69.20;;;;;;5072565;28;20050;-31
2023/05/02 05:48:38;;;;;;;3.67;1.70;;;17.80;69.20;;;;;;5074588;28;20048;-31
2023/05/02 05:51:05;;;;;;;1.85;1.33;;;18.50;69.60;;;;;;5074319;28;20044;-31
2023/05/02 05:53:32;;;;;;;3.47;1.60;;;17.20;68.40;;;;;;5074128;28;20409;-31
2023/05/02 05:55:59;;;;;;;3.08;1.60;;;17.70;69.30;;;;;;5074371;28;20051;-31
2023/05/02 05:58:26;;;;;;;2.00;1.30;;;;;;;;;;5074007;28;20517;-34
2023/05/02 06:00:53;;;;;;;3.08;1.60;;;17.90;69.20;;;;;;5073391;28;20048;-31
2023/05/02 06:03:21;;;;;;;3.75;1.67;;;18.10;50.20;;;;;;5073721;28;20052;-36
2023/05/02 06:05:48;;;;;;;3.88;1.50;;;18.20;65.20;;;;;;5074320;28;20405;-31
2023/05/02 06:08:15;;;;;;;3.22;1.65;;;18.50;69.60;;;;;;5074030;28;20045;-31
2023/05/02 06:10:42;;;;;;;2.58;1.65;;;;;;;;;;5074216;28;20044;-35
2023/05/02 06:13:09;;;;;;;3.97;1.90;;;16.90;68.40;;;;;;5073412;28;20091;-31
2023/05/02 06:15:35;;;;;;;3.42;1.40;;;17.70;69.20;;;;;;5055481;28;20488;-31
2023/05/02 06:18:02;;;;;;;2.33;1.40;;;;;;;;;;5052464;28;20131;-35
2023/05/02 06:20:30;;;;;;;3.25;1.40;;;18.20;69.10;;;;;;5053713;28;20049;-31
2023/05/02 06:22:57;;;;;;;3.22;1.52;;;;;;;;;;5053768;28;20055;-31
2023/05/02 06:25:24;;;;;;;3.33;1.50;;;;;;;;;;5053577;28;20045;-35
2023/05/02 06:27:51;;;;;;;2.60;1.50;;;18.50;55.40;;;;;;5059379;28;20045;-31
2023/05/02 06:30:18;;;;;;;3.45;1.67;;;18.20;69.20;;;;;;5073921;28;20052;-31
2023/05/02 06:32:45;;;;;;;3.13;1.65;;;;;;;;;;5073421;28;20055;-35
2023/05/02 06:35:12;;;;;;;2.95;1.67;;;18.10;64.20;;;;;;5070539;28;20056;-31
2023/05/02 06:37:40;;;;;;;3.75;1.70;;;17.70;69.10;;;;;;5061716;28;20040;-31
2023/05/02 06:40:09;;;;;;;3.45;1.50;;;17.30;68.50;;;;;;5062530;28;20414;-31
2023/05/02 06:42:36;;;;;;;3.17;1.60;;;18.50;69.20;;;;;;5062318;28;20044;-31
2023/05/02 06:45:03;;;;;;;4.00;1.85;;;18.10;50.00;;;;;;5063980;28;20051;-34
2023/05/02 06:47:30;;;;;;;2.75;1.48;;;18.60;69.60;;;;;;5055497;28;20057;-31
2023/05/02 06:49:57;;;;;;;2.85;1.67;;;17.10;58.20;;;;;;5053666;28;20139;-32
2023/05/02 06:52:24;;;;;;;3.03;1.55;;;18.20;68.70;;;;;;5053370;28;20076;-31
2023/05/02 06:54:52;;;;;;;2.78;1.42;;;18.00;68.60;;;;;;5053227;28;20048;-31
2023/05/02 06:57:19;;;;;;;2.25;1.30;;;18.30;68.90;;;;;;5053427;28;20051;-31
2023/05/02 06:59:46;;;;;;;3.72;1.42;;;;;;;;;;5053016;28;20052;-33
2023/05/02 07:02:13;;;;;;;3.20;1.50;;;;;;;;;;5053046;28;20049;-32
2023/05/02 07:04:40;;;;;;;3.30;1.55;;;;;;;;;;5052926;28;20045;-35
2023/05/02 07:07:06;;;;;;;2.33;1.23;;;18.60;68.40;;;;;;5053078;28;20049;-31
2023/05/02 07:09:33;;;;;;;3.45;1.63;;;;;;;;;;5052805;28;20055;-32
2023/05/02 07:12:02;;;;;;;3.85;1.60;;;19.20;67.30;;;;;;5066494;28;20048;-31
2023/05/02 07:14:29;;;;;;;4.72;1.50;;;19.30;67.90;;;;;;5072670;28;20114;-32
2023/05/02 07:16:55;;;;;;;3.00;1.60;;;18.60;67.50;;;;;;5063472;28;20083;-31
2023/05/02 07:19:22;;;;;;;2.53;1.35;;;19.40;53.20;;;;;;5052622;28;20045;-32
2023/05/02 07:21:49;;;;;;;2.55;1.45;;;19.40;54.80;;;;;;5052607;28;20045;-31
2023/05/02 07:24:15;;;;;;;5.10;1.60;;;19.40;67.80;;;;;;5053083;28;20049;-31
2023/05/02 07:26:42;;;;;;;3.35;1.50;;;;;;;;;;5066005;28;20047;-37
2023/05/02 07:29:11;;;;;;;3.88;1.30;;;18.90;67.10;;;;;;5061015;28;20583;-31
2023/05/02 07:31:38;;;;;;;1.90;1.35;;;;;;;;;;5057698;28;20571;-31
2023/05/02 07:34:05;;;;;;;2.53;1.35;;;19.80;54.90;;;;;;5061063;28;20055;-33
2023/05/02 07:36:31;;;;;;;3.47;1.70;;;19.70;66.70;;;;;;5056902;28;20051;-31
2023/05/02 07:38:59;;;;;;;2.15;1.40;;;20.40;67.40;;;;;;5061209;28;20041;-31
2023/05/02 07:41:25;;;;;;;3.15;1.48;;;20.60;67.00;;;;;;5061852;28;20114;-31
2023/05/02 07:43:52;;;;;;;2.47;1.75;;;20.20;66.70;;;;;;5065124;28;20092;-30
2023/05/02 07:46:20;;;;;;;3.55;1.20;;;20.00;48.30;;;;;;5052240;28;20053;-35
2023/05/02 07:48:47;;;;;;;2.55;1.50;;;;;;;;;;5051736;28;20055;-36
2023/05/02 07:51:14;;;;;;;3.33;1.50;;;20.30;61.30;;;;;;5051143;28;20132;-32
2023/05/02 07:53:40;;;;;;;3.20;1.50;;;20.10;66.40;;;;;;5050615;28;20045;-31
2023/05/02 07:56:08;;;;;;;2.58;1.40;;;20.10;48.10;;;;;;5051683;28;20071;-34
2023/05/02 07:58:35;;;;;;;2.45;1.40;;;20.40;66.50;;;;;;5051669;28;20506;-31
2023/05/02 08:01:02;;;;;;;5.13;1.80;;;19.80;66.40;;;;;;5051778;28;20458;-31
2023/05/02 08:03:30;;;;;;;4.93;1.67;;;20.10;48.20;;;;;;5050992;28;20053;-31
2023/05/02 08:05:57;;;;;;;3.45;1.45;;;;;;;;;;5051482;28;20051;-31
2023/05/02 08:08:24;;;;;;;3.58;1.52;;;20.20;66.80;;;;;;5051392;28;20516;-31
2023/05/02 08:10:51;;;;;;;3.35;1.60;;;20.20;66.90;;;;;;5057120;28;20049;-31
2023/05/02 08:13:18;;;;;;;5.63;2.03;;;20.40;58.40;;;;;;5054245;28;20074;-31
2023/05/02 08:15:45;;;;;;;5.40;1.63;;;;;;;;;;5050459;28;20048;-33
2023/05/02 08:18:12;;;;;;;4.07;1.65;;;20.00;52.50;;;;;;5050648;28;20048;-32
2023/05/02 08:20:40;;;;;;;2.38;1.33;;;19.90;62.60;;;;;;5050961;28;20049;-31
2023/05/02 08:23:06;;;;;;;4.05;1.67;;;19.80;66.30;;;;;;5063812;28;20040;-31
2023/05/02 08:25:33;;;;;;;2.00;1.52;;;20.20;66.50;;;;;;5071213;28;20052;-31
2023/05/02 08:28:00;;;;;;;3.88;1.60;;;;;;;;;;5070831;28;20402;-35
2023/05/02 08:30:27;;;;;;;2.40;1.50;;;19.50;66.70;;;;;;5071912;28;20424;-31
2023/05/02 08:32:54;;;;;;;3.80;1.50;;;20.10;67.10;;;;;;5071563;28;20413;-31
2023/05/02 09:01:03;;;;;;;2.28;1.50;;;19.60;67.50;;;;;;5055102;28;20440;-31
2023/05/02 09:03:31;;;;;;;3.33;1.70;;;19.50;67.40;;;;;;5051238;28;20141;-31
2023/05/02 09:06:06;;;;;;;3.65;1.58;;;19.60;63.90;;;;;;5067843;28;20060;-31
2023/05/02 09:08:33;;;;;;;3.08;1.42;;;20.00;67.30;;;;;;5066513;28;20049;-31
2023/05/02 09:11:00;;;;;;;3.95;2.13;;;;;;;;;;5067320;28;20059;-34
2023/05/02 09:13:34;;;;;;;2.30;1.50;;;19.20;66.80;;;;;;5051433;28;20045;-31
2023/05/02 09:16:03;;;;;;;4.13;1.90;;;20.20;67.70;;;;;;5059056;28;20059;-31
2023/05/02 09:18:31;;;;;;;5.63;1.80;;;19.30;49.70;;;;;;5059051;28;20041;-33
2023/05/02 09:20:59;;;;;;;2.28;1.40;;;19.60;48.30;;;;;;5069908;28;20059;-31
2023/05/02 09:23:38;;;;;;;3.08;1.45;;;19.50;48.30;;;;;;5074883;28;20052;-34
2023/05/02 09:26:16;;;;;;;3.40;1.60;;;19.60;66.20;;;;;;5073008;28;20056;-31
2023/05/02 09:28:44;;;;;;;3.60;1.73;;;19.10;66.40;;;;;;5074341;28;20055;-31
2023/05/02 09:31:13;;;;;;;2.72;1.52;;;19.30;66.80;;;;;;5063923;28;20048;-31
2023/05/02 09:33:40;;;;;;;2.50;1.60;;;19.20;66.20;;;;;;5074405;28;20052;-31
2023/05/02 09:36:07;;;;;;;2.85;1.40;;;19.20;60.90;;;;;;5070034;28;20044;-33
2023/05/02 09:38:33;;;;;;;3.00;1.40;;;19.90;66.70;;;;;;5056889;28;20057;-31
2023/05/02 09:41:02;;;;;;;3.20;1.58;;;;;;;;;;5069586;28;20063;-35
2023/05/02 09:43:29;;;;;;;2.17;1.45;;;;;;;;;;5073895;28;20082;-34
2023/05/02 09:45:59;;;;;;;3.00;1.60;;;19.80;53.70;;;;;;5068662;28;20045;-31
2023/05/02 09:48:28;;;;;;;2.83;1.77;;;19.50;48.20;;;;;;5059728;28;20045;-35
2023/05/02 09:51:20;;;;;;;2.45;1.40;;;19.10;61.60;;;;;;5065954;28;20099;-31
2023/05/02 09:53:47;;;;;;;2.25;1.50;;;19.50;48.30;;;;;;5054479;28;20124;-34
2023/05/02 09:56:14;;;;;;;4.07;1.63;;;19.20;66.80;;;;;;5055461;28;20075;-31
2023/05/02 09:58:40;;;;;;;2.00;1.35;;;18.90;50.60;;;;;;5066554;28;20117;-31
2023/05/02 10:01:07;;;;;;;2.45;1.40;;;20.30;48.90;;;;;;5054142;28;20473;-33
2023/05/02 10:03:36;;;;;;;1.98;1.30;;;20.40;66.90;;;;;;5062646;28;20135;-31
2023/05/02 10:06:04;;;;;;;2.22;1.30;;;19.60;48.30;;;;;;5074210;28;20059;-34
2023/05/02 10:08:34;;;;;;;1.75;1.30;;;19.40;48.10;;;;;;5057865;28;20053;-34
2023/05/02 10:11:01;;;;;;;3.03;1.40;;;;;;;;;;5053854;28;20115;-34
2023/05/02 10:13:31;;;;;;;2.03;1.40;;;19.10;66.30;;;;;;5053617;28;20048;-32
2023/05/02 10:16:00;;;;;;;3.40;1.63;;;19.40;48.10;;;;;;5053998;28;20049;-33
2023/05/02 10:18:28;;;;;;;1.92;1.40;;;20.20;63.10;;;;;;5053638;28;20056;-31
2023/05/02 10:20:59;;;;;;;1.75;1.40;;;19.60;66.50;;;;;;5054070;28;20063;-31
2023/05/02 10:23:27;;;;;;;1.92;1.30;;;19.10;66.20;;;;;;5053365;28;20055;-31
2023/05/02 10:25:54;;;;;;;2.38;1.35;;;19.70;65.20;;;;;;5059111;28;20048;-31
2023/05/02 10:28:21;;;;;;;2.05;1.25;;;19.50;66.40;;;;;;5059853;28;20045;-31
2023/05/02 10:30:48;;;;;;;2.53;1.30;;;;;;;;;;5063514;28;20049;-34
2023/05/02 10:33:15;;;;;;;2.72;1.50;;;19.40;66.80;;;;;;5061503;28;20047;-31
2023/05/02 10:35:43;;;;;;;3.08;1.48;;;19.30;66.80;;;;;;5059693;28;20127;-31
2023/05/02 10:38:11;;;;;;;2.30;1.00;;;19.50;48.20;;;;;;5059253;28;20136;-34
2023/05/02 10:40:39;;;;;;;1.95;1.40;;;19.40;48.10;;;;;;5053404;28;20139;-33
2023/05/02 10:43:05;;;;;;;3.40;1.30;;;20.20;67.30;;;;;;5053006;28;20044;-31
2023/05/02 10:45:33;;;;;;;2.17;1.30;;;19.40;48.10;;;;;;5061491;28;20135;-35
2023/05/02 10:48:13;;;;;;;1.60;1.30;;;19.20;67.10;;;;;;5060871;28;20079;-31
2023/05/02 10:50:46;;;;;;;1.45;1.08;;;18.70;66.10;;;;;;5052438;28;20052;-31
2023/05/02 10:53:24;;;;;;;1.85;1.30;;;19.30;48.00;;;;;;5052913;28;20474;-35
2023/05/02 10:56:16;;;;;;;1.95;1.20;;;19.20;55.80;;;;;;5052796;28;20132;-32
2023/05/02 10:58:43;;;;;;;1.55;1.20;;;;;;;;;;5053018;28;20084;-35
2023/05/02 11:01:35;;;;;;;2.85;1.27;;;19.60;66.60;;;;;;5052909;28;20132;-31
2023/05/02 11:04:02;;;;;;;1.55;1.20;;;;;;;;;;5052399;28;20056;-34
2023/05/02 11:06:29;;;;;;;5.10;1.30;;;19.30;48.00;;;;;;5060494;28;20053;-33
2023/05/02 11:09:29;;;;;;;4.00;1.20;;;19.50;66.50;;;;;;5059241;28;20124;-32
2023/05/02 11:11:58;;;;;;;1.67;1.15;;;19.60;66.60;;;;;;5065443;28;20047;-30
2023/05/02 11:14:43;;;;;;;3.13;1.50;;;19.40;67.10;;;;;;5062051;28;20136;-31
2023/05/02 11:17:10;;;;;;;3.58;1.40;;;18.90;67.20;;;;;;5052433;28;20076;-31
2023/05/02 11:20:25;;;;;;;3.33;1.60;;;19.00;66.50;;;;;;5052275;28;20051;-31
2023/05/02 11:22:54;;;;;;;2.38;1.30;;;19.50;67.10;;;;;;5051733;28;20041;-31
2023/05/02 11:25:35;;;;;;;4.22;1.45;;;19.20;48.30;;;;;;5063039;28;20049;-31
2023/05/02 11:28:04;;;;;;;4.57;1.50;;;19.60;49.10;;;;;;5065372;28;20488;-33
2023/05/02 11:30:41;;;;;;;2.08;1.20;;;19.30;67.00;;;;;;5066711;28;20131;-31
2023/05/02 11:33:16;;;;;;;1.70;1.20;;;19.20;67.50;;;;;;5061693;28;20048;-31
2023/05/02 11:35:43;;;;;;;3.63;1.83;;;18.50;67.30;;;;;;5060532;28;20127;-31
2023/05/02 11:38:10;;;;;;;3.28;1.42;;;19.60;49.40;;;;;;5059994;28;20048;-34
2023/05/02 11:40:37;;;;;;;3.38;1.40;;;19.00;67.50;;;;;;5062378;28;20048;-31
2023/05/02 11:43:13;;;;;;;2.72;1.40;;;19.10;48.50;;;;;;5061882;28;20134;-34
2023/05/02 11:45:41;;;;;;;2.55;1.40;;;;;;;;;;5062464;28;20047;-34
2023/05/02 11:48:08;;;;;;;3.65;1.30;;;19.10;67.00;;;;;;5063132;28;20472;-31
2023/05/02 11:50:35;;;;;;;2.83;1.58;;;18.70;60.60;;;;;;5060877;28;20051;-32
2023/05/02 11:53:02;;;;;;;2.38;1.45;;;19.40;68.10;;;;;;5060865;28;20537;-30
2023/05/02 11:55:28;;;;;;;3.40;1.40;;;19.10;56.50;;;;;;5066033;28;20179;-32
2023/05/02 11:57:55;;;;;;;6.43;1.63;;;19.20;67.00;;;;;;5060640;28;20408;-31
2023/05/02 12:00:28;;;;;;;2.63;1.23;;;19.20;67.00;;;;;;5054402;28;20131;-32
2023/05/02 12:02:55;;;;;;;1.70;1.20;;;;;;;;;;5051750;28;20561;-34
2023/05/02 12:05:28;;;;;;;3.50;1.52;;;19.00;48.60;;;;;;5051592;28;20049;-32
2023/05/02 12:07:55;;;;;;;2.15;1.23;;;;;;;;;;5052302;28;20060;-35
2023/05/02 12:10:22;;;;;;;2.55;1.20;;;19.20;66.90;;;;;;5060721;28;20049;-31
2023/05/02 12:12:49;;;;;;;4.07;1.52;;;;;;;;;;5071814;28;20053;-35
2023/05/02 12:15:17;;;;;;;1.73;1.20;;;19.30;67.10;;;;;;5071488;28;20076;-31
2023/05/02 12:17:47;;;;;;;2.00;1.20;;;18.80;59.40;;;;;;5054386;28;20083;-31
2023/05/02 12:20:15;;;;;;;2.88;1.55;;;;;;;;;;5051247;28;20049;-40
2023/05/02 12:22:43;;;;;;;2.20;1.30;;;;;;;;;;5066693;28;20063;-35
2023/05/02 12:25:10;;;;;;;1.83;1.08;;;18.70;48.20;;;;;;5050525;28;20505;-32
2023/05/02 12:27:37;;;;;;;3.13;1.30;;;18.80;69.00;;;;;;5051836;28;20083;-32
2023/05/02 12:30:04;;;;;;;2.63;1.23;;;18.90;48.30;;;;;;5063647;28;20113;-34
2023/05/02 12:32:32;;;;;;;3.42;1.40;;;17.70;66.20;;;;;;5071182;28;20094;-31
2023/05/02 12:35:00;;;;;;;1.48;1.02;;;19.10;67.00;;;;;;5071716;28;20135;-31
2023/05/02 12:37:27;;;;;;;2.00;1.30;;;19.60;67.30;;;;;;5070592;28;20613;-31
2023/05/02 12:39:54;;;;;;;3.03;1.02;;;19.10;64.20;;;;;;5071699;28;20131;-31
2023/05/02 12:42:22;;;;;;;1.98;1.40;;;18.60;67.20;;;;;;5071403;28;20079;-31
2023/05/02 12:44:50;;;;;;;1.60;0.98;;;18.60;61.40;;;;;;5071574;28;20136;-31
2023/05/02 12:47:17;;;;;;;2.33;1.25;;;18.60;67.10;;;;;;5070914;28;20056;-31
2023/05/02 12:49:50;;;;;;;3.42;1.20;;;18.80;48.70;;;;;;5071434;28;20094;-33
2023/05/02 12:52:19;;;;;;;3.42;1.20;;;18.20;66.80;;;;;;5071120;28;20083;-31
2023/05/02 12:54:45;;;;;;;1.77;1.00;;;19.70;68.00;;;;;;5073374;28;20135;-31
2023/05/02 12:57:22;;;;;;;2.47;1.15;;;18.80;48.60;;;;;;5066332;28;20064;-35
2023/05/02 12:59:51;;;;;;;2.10;1.02;;;18.80;67.20;;;;;;5055199;28;20045;-31
2023/05/02 13:02:18;;;;;;;2.42;1.25;;;18.40;67.50;;;;;;5054963;28;20102;-31
2023/05/02 13:04:45;;;;;;;4.07;1.30;;;19.60;59.90;;;;;;5071546;28;20056;-31
2023/05/02 13:07:12;;;;;;;3.67;1.20;;;;;;;;;;5075089;28;20044;-31
2023/05/02 13:09:40;;;;;;;1.10;1.00;;;18.70;48.50;;;;;;5074792;28;20135;-35
2023/05/02 13:12:08;;;;;;;2.35;1.20;;;;;;;;;;5065930;28;20052;-35
2023/05/02 13:14:35;;;;;;;2.38;1.25;;;;;;;;;;5063293;28;20071;-31
2023/05/02 13:17:02;;;;;;;1.63;1.02;;;18.40;67.20;;;;;;5063218;28;20132;-32
2023/05/02 13:19:30;;;;;;;2.60;1.17;;;;;;;;;;5074929;28;20139;-33
2023/05/02 13:21:57;;;;;;;5.53;1.15;;;;;;;;;;5066105;28;20099;-35
2023/05/02 13:24:24;;;;;;;2.35;1.10;;;18.30;67.80;;;;;;5062216;28;20044;-31
2023/05/02 13:26:52;;;;;;;2.53;1.30;;;18.50;68.10;;;;;;5072090;28;20829;-31
2023/05/02 13:29:19;;;;;;;1.52;1.10;;;19.00;61.00;;;;;;5061665;28;20057;-31
2023/05/02 13:31:45;;;;;;;2.17;1.20;;;19.40;54.10;;;;;;5063832;28;20558;-31
2023/05/02 13:34:12;;;;;;;3.75;1.60;;;18.80;63.80;;;;;;5064700;28;20041;-31
2023/05/02 13:36:44;;;;;;;1.25;0.90;;;18.40;67.60;;;;;;5061483;28;20050;-31
2023/05/02 13:39:11;;;;;;;2.78;1.10;;;18.80;68.00;;;;;;5065160;28;20084;-32